Time;durP1;ratioP1;P1;durP2;ratioP2;P2;SDS_P1;SDS_P2;PMS_P1;PMS_P2;Temp;Humidity;BMP_temperature;BMP_pressure;BME280_temperature;BME280_humidity;BME280_pressure;Samples;Min_cycle;Max_cycle;Signal;HPM_P1;HPM_P2
2021/03/19 00:01:11;;;;;;;8.00;5.60;;;;;;;5.83;71.84;96304.56;5057116;28;20167;-61
2021/03/19 00:03:37;;;;;;;6.90;6.20;;;;;;;5.93;71.99;96304.97;5056994;28;20176;-63
2021/03/19 00:06:02;;;;;;;7.63;6.40;;;;;;;5.88;71.50;96300.38;5057670;28;20634;-63
2021/03/19 00:08:28;;;;;;;6.20;5.57;;;;;;;5.97;71.10;96298.38;5057962;28;20221;-62
2021/03/19 00:10:53;;;;;;;5.73;5.13;;;;;;;6.01;70.50;96292.56;5057026;28;20252;-60
2021/03/19 00:13:19;;;;;;;14.43;5.70;;;;;;;6.03;71.63;96294.97;5065016;28;20657;-60
2021/03/19 00:15:45;;;;;;;6.03;5.53;;;;;;;6.02;70.99;96294.16;5062526;28;20300;-62
2021/03/19 00:18:10;;;;;;;7.07;6.30;;;;;;;5.97;71.62;96291.34;5056350;28;20221;-61
2021/03/19 00:20:42;;;;;;;6.40;5.77;;;;;;;6.04;71.52;96286.13;5076131;28;20241;-65
2021/03/19 00:23:08;;;;;;;6.97;5.40;;;;;;;5.90;71.30;96297.56;5056456;28;20199;-60
2021/03/19 00:25:36;;;;;;;5.93;5.30;;;;;;;5.95;71.33;96292.53;5056593;28;20504;-60
2021/03/19 00:28:02;;;;;;;6.83;5.30;;;;;;;5.98;70.98;96282.50;5056096;28;20474;-61
2021/03/19 00:30:28;;;;;;;9.43;6.80;;;;;;;6.02;71.35;96290.75;5056749;28;20500;-61
2021/03/19 00:32:53;;;;;;;8.27;6.63;;;;;;;6.01;70.49;96292.56;5056519;28;20406;-63
2021/03/19 00:35:19;;;;;;;5.70;5.20;;;;;;;5.98;70.67;96284.31;5056112;28;20213;-60
2021/03/19 00:37:48;;;;;;;6.17;5.17;;;;;;;5.95;71.19;96288.13;5070813;28;20251;-61
2021/03/19 00:40:15;;;;;;;6.40;5.80;;;;;;;6.01;71.89;96279.53;5076572;28;20197;-61
2021/03/19 00:42:41;;;;;;;6.50;5.87;;;;;;;6.06;71.31;96279.72;5076346;28;20407;-60
2021/03/19 00:45:09;;;;;;;7.73;6.10;;;;;;;6.04;71.17;96273.09;5065083;28;20428;-60
2021/03/19 00:47:34;;;;;;;7.13;6.43;;;;;;;6.06;70.49;96274.50;5055802;28;20749;-62
2021/03/19 00:50:01;;;;;;;10.40;6.40;;;;;;;6.09;71.42;96281.94;5062225;28;20511;-62
2021/03/19 00:52:26;;;;;;;7.77;7.00;;;;;;;6.02;70.68;96275.91;5076011;28;20180;-62
2021/03/19 00:54:51;;;;;;;8.60;6.60;;;;;;;5.86;71.00;96270.25;5076198;28;20401;-61
2021/03/19 00:57:17;;;;;;;10.93;7.00;;;;;;;5.68;72.38;96272.59;5074408;28;20194;-60
2021/03/19 00:59:42;;;;;;;9.30;6.60;;;;;;;5.31;74.46;96273.88;5066490;28;20696;-63
2021/03/19 01:02:09;;;;;;;8.47;6.50;;;;;;;5.29;74.73;96269.91;5056154;28;20171;-60
2021/03/19 01:04:34;;;;;;;8.00;6.70;;;;;;;4.77;76.25;96268.63;5060226;28;20246;-61
2021/03/19 01:07:00;;;;;;;10.10;7.73;;;;;;;4.75;77.50;96273.22;5075130;28;20512;-64
2021/03/19 01:09:25;;;;;;;7.77;7.10;;;;;;;5.18;76.42;96272.03;5075714;28;20751;-60
2021/03/19 01:11:51;;;;;;;7.57;6.87;;;;;;;5.28;75.22;96276.91;5076088;28;20253;-61
2021/03/19 01:14:16;;;;;;;8.57;7.70;;;;;;;5.21;76.08;96269.06;5063776;28;20201;-63
2021/03/19 01:16:42;;;;;;;9.57;8.00;;;;;;;5.43;75.31;96272.34;5068848;28;20664;-63
2021/03/19 01:19:08;;;;;;;9.13;8.00;;;;;;;5.12;75.28;96269.41;5073880;28;20190;-60
2021/03/19 01:21:34;;;;;;;10.33;7.87;;;;;;;4.70;77.18;96265.19;5075804;28;20508;-60
2021/03/19 01:23:59;;;;;;;9.57;7.33;;;;;;;4.72;77.71;96258.00;5075247;28;20425;-60
2021/03/19 01:26:25;;;;;;;8.33;7.53;;;;;;;4.37;79.78;96261.56;5075197;28;20231;-64
2021/03/19 01:28:50;;;;;;;9.00;7.43;;;;;;;4.28;80.15;96257.50;5073413;28;20185;-64
2021/03/19 01:31:16;;;;;;;9.70;7.50;;;;;;;4.36;79.45;96257.38;5055378;28;20572;-63
2021/03/19 01:33:42;;;;;;;9.33;7.43;;;;;;;4.64;79.22;96252.16;5069013;28;20185;-63
2021/03/19 01:36:08;;;;;;;10.30;7.90;;;;;;;4.66;78.39;96250.16;5074612;28;20229;-62
2021/03/19 01:38:35;;;;;;;13.60;7.70;;;;;;;4.83;77.94;96244.47;5075123;28;20201;-60
2021/03/19 01:41:02;;;;;;;9.77;7.90;;;;;;;4.96;76.62;96248.94;5075355;28;20404;-60
2021/03/19 01:43:36;;;;;;;8.23;7.37;;;;;;;4.99;77.48;96245.94;5074756;28;20419;-63
2021/03/19 01:46:38;;;;;;;8.50;7.70;;;;;;;4.76;77.46;96245.41;5061116;28;20423;-64
2021/03/19 01:49:41;;;;;;;10.73;7.50;;;;;;;4.75;77.15;96246.41;5075075;28;20416;-63
2021/03/19 01:52:43;;;;;;;8.87;7.67;;;;;;;4.04;80.28;96244.94;5075126;28;20407;-60
2021/03/19 01:55:46;;;;;;;10.17;7.57;;;;;;;3.85;81.80;96243.78;5074927;28;20407;-60
2021/03/19 01:58:49;;;;;;;13.20;8.07;;;;;;;4.37;79.45;96245.16;5070210;28;20450;-60
2021/03/19 02:01:52;;;;;;;8.67;7.87;;;;;;;4.38;79.30;96228.59;5074996;28;20492;-60
2021/03/19 02:04:55;;;;;;;9.67;7.43;;;;;;;4.28;79.82;96234.09;5074892;28;20404;-60
2021/03/19 02:07:57;;;;;;;8.90;8.00;;;;;;;3.80;81.61;96227.97;5074369;28;20414;-62
2021/03/19 02:11:10;;;;;;;9.17;7.50;;;;;;;3.89;80.91;96226.03;5074975;28;20404;-62
2021/03/19 02:14:13;;;;;;;8.70;7.80;;;;;;;3.76;81.45;96212.91;5067557;28;20437;-60
2021/03/19 02:17:16;;;;;;;8.83;7.93;;;;;;;4.01;81.60;96217.53;5053087;28;20450;-60
2021/03/19 02:20:18;;;;;;;8.87;7.97;;;;;;;4.36;79.88;96207.97;5054673;28;20436;-60
2021/03/19 02:23:21;;;;;;;8.77;7.93;;;;;;;4.32;79.76;96213.72;5053268;28;20779;-63
2021/03/19 02:26:24;;;;;;;10.80;8.37;;;;;;;4.46;78.97;96211.03;5054975;28;20395;-63
2021/03/19 02:29:26;;;;;;;9.60;8.60;;;;;;;4.66;78.02;96213.72;5064288;28;20528;-64
2021/03/19 02:31:54;;;;;;;9.80;8.07;;;;;;;4.39;79.33;96217.16;5055519;28;20424;-61
2021/03/19 02:34:24;;;;;;;9.77;8.77;;;;;;;4.58;78.84;96211.28;5054742;28;20408;-65
2021/03/19 02:36:49;;;;;;;9.03;8.00;;;;;;;4.67;78.34;96215.34;5073692;28;20444;-63
2021/03/19 02:39:15;;;;;;;12.40;8.97;;;;;;;4.38;78.56;96221.59;5071200;28;20501;-60
2021/03/19 02:41:40;;;;;;;9.33;8.50;;;;;;;4.68;78.16;96224.75;5054238;28;20182;-60
2021/03/19 02:44:06;;;;;;;9.87;8.90;;;;;;;4.87;77.42;96231.88;5054090;28;20694;-63
2021/03/19 02:46:31;;;;;;;9.23;8.40;;;;;;;4.95;76.74;96224.69;5053784;28;20205;-63
2021/03/19 02:48:56;;;;;;;12.90;8.90;;;;;;;5.00;76.23;96224.13;5054104;28;20213;-63
2021/03/19 02:51:22;;;;;;;9.60;8.50;;;;;;;4.95;76.72;96216.06;5072383;28;20572;-60
2021/03/19 02:53:47;;;;;;;8.83;8.03;;;;;;;5.03;76.17;96218.50;5072885;28;20535;-62
2021/03/19 02:56:13;;;;;;;9.07;8.17;;;;;;;4.98;75.30;96226.13;5055086;28;20667;-60
2021/03/19 02:58:38;;;;;;;9.83;8.80;;;;;;;4.98;76.45;96220.91;5053973;28;20207;-63
2021/03/19 03:01:05;;;;;;;9.97;8.97;;;;;;;5.08;75.51;96216.13;5053841;28;20179;-63
2021/03/19 03:03:32;;;;;;;10.43;8.90;;;;;;;5.15;75.31;96206.53;5053964;28;20175;-63
2021/03/19 03:05:57;;;;;;;10.10;8.40;;;;;;;4.70;75.95;96209.75;5071163;28;20440;-61
2021/03/19 03:08:23;;;;;;;9.37;8.43;;;;;;;4.54;77.22;96213.47;5071818;28;20477;-60
2021/03/19 03:10:52;;;;;;;9.60;8.47;;;;;;;4.73;76.27;96199.75;5072494;28;20649;-60
2021/03/19 03:13:18;;;;;;;9.33;8.33;;;;;;;4.96;76.24;96202.84;5073711;28;20788;-60
2021/03/19 03:15:43;;;;;;;13.70;9.07;;;;;;;5.05;75.47;96195.69;5073450;28;20856;-63
2021/03/19 03:18:11;;;;;;;11.60;8.80;;;;;;;5.11;74.79;96202.72;5073221;28;20963;-61
2021/03/19 03:20:41;;;;;;;8.03;7.23;;;;;;;5.14;74.94;96205.75;5055866;28;20269;-60
2021/03/19 03:23:07;;;;;;;11.50;8.40;;;;;;;5.19;75.31;96203.34;5052408;28;20863;-62
2021/03/19 03:25:34;;;;;;;9.57;8.50;;;;;;;5.29;74.81;96212.59;5053445;28;20936;-63
2021/03/19 03:28:00;;;;;;;10.17;8.10;;;;;;;5.12;74.51;96207.75;5052734;28;20999;-63
2021/03/19 03:30:25;;;;;;;8.80;8.00;;;;;;;4.96;75.02;96208.06;5053548;28;20408;-62
2021/03/19 03:32:51;;;;;;;9.47;8.10;;;;;;;5.16;74.24;96195.91;5053496;28;20413;-62
2021/03/19 03:35:18;;;;;;;10.90;8.90;;;;;;;5.24;74.09;96206.16;5067686;28;20627;-64
2021/03/19 03:37:45;;;;;;;8.97;8.07;;;;;;;5.30;74.76;96203.78;5052743;28;20230;-63
2021/03/19 03:40:24;;;;;;;11.60;9.37;;;;;;;5.37;74.28;96205.41;5053476;28;20829;-60
2021/03/19 03:42:50;;;;;;;10.93;9.83;;;;;;;5.40;74.42;96204.22;5053382;28;20448;-60
2021/03/19 03:45:16;;;;;;;11.57;9.93;;;;;;;5.38;75.05;96201.78;5053159;28;20454;-62
2021/03/19 03:47:41;;;;;;;11.53;8.37;;;;;;;5.43;74.81;96207.22;5052762;28;20210;-59
2021/03/19 03:50:11;;;;;;;13.60;9.30;;;;;;;5.49;74.84;96201.19;5069576;28;20203;-63
2021/03/19 03:52:37;;;;;;;10.37;9.17;;;;;;;5.51;74.84;96206.25;5073469;28;20530;-62
2021/03/19 03:55:05;;;;;;;11.57;10.47;;;;;;;5.54;74.29;96204.03;5073322;28;20416;-63
2021/03/19 03:57:30;;;;;;;10.57;9.53;;;;;;;5.50;74.43;96205.44;5072687;28;20209;-63
2021/03/19 03:59:56;;;;;;;10.17;9.23;;;;;;;5.58;74.14;96213.03;5073050;28;20503;-63
2021/03/19 04:02:25;;;;;;;12.40;9.50;;;;;;;5.62;73.67;96200.41;5071576;28;20212;-59
2021/03/19 04:04:51;;;;;;;11.47;10.30;;;;;;;5.62;73.53;96203.84;5070139;28;20189;-60
2021/03/19 04:07:17;;;;;;;10.43;9.40;;;;;;;5.59;74.15;96206.84;5072641;28;20419;-63
2021/03/19 04:09:43;;;;;;;13.70;10.30;;;;;;;5.55;74.31;96205.63;5062895;28;20426;-60
2021/03/19 04:12:10;;;;;;;11.37;9.03;;;;;;;5.60;73.88;96200.63;5053124;28;20174;-62
2021/03/19 04:14:36;;;;;;;12.60;10.80;;;;;;;5.56;73.66;96198.63;5052933;28;20176;-60
2021/03/19 04:17:07;;;;;;;15.40;10.40;;;;;;;5.59;73.36;96204.25;5052546;28;20882;-62
2021/03/19 04:19:32;;;;;;;11.67;10.47;;;;;;;5.58;73.69;96213.03;5069561;28;20294;-62
2021/03/19 04:21:58;;;;;;;11.20;10.10;;;;;;;5.63;73.91;96204.66;5073101;28;20490;-62
2021/03/19 04:24:23;;;;;;;10.70;9.60;;;;;;;5.62;74.70;96209.06;5072982;28;20201;-62
2021/03/19 04:26:49;;;;;;;11.27;10.10;;;;;;;5.64;73.47;96208.84;5072650;28;20209;-63
2021/03/19 04:29:14;;;;;;;12.37;10.40;;;;;;;5.61;73.45;96202.25;5072794;28;20197;-60
2021/03/19 04:31:39;;;;;;;10.30;9.30;;;;;;;5.61;73.82;96207.47;5071932;28;20692;-60
2021/03/19 04:34:05;;;;;;;13.73;10.80;;;;;;;5.61;74.60;96206.66;5057573;28;20243;-60
2021/03/19 04:36:45;;;;;;;9.93;8.93;;;;;;;5.56;74.08;96209.06;5052432;28;20206;-59
2021/03/19 04:39:26;;;;;;;11.60;10.10;;;;;;;5.32;73.55;96202.59;5054017;28;20600;-62
2021/03/19 04:41:55;;;;;;;10.73;9.70;;;;;;;4.99;75.29;96206.88;5056674;28;20463;-62
2021/03/19 04:44:23;;;;;;;11.50;10.37;;;;;;;5.09;75.63;96202.13;5061973;28;20427;-60
2021/03/19 04:46:49;;;;;;;11.10;10.10;;;;;;;5.15;74.75;96206.53;5076029;28;20768;-59
2021/03/19 04:49:15;;;;;;;11.40;10.30;;;;;;;4.72;76.12;96205.16;5057758;28;20445;-60
2021/03/19 04:51:40;;;;;;;11.03;10.00;;;;;;;4.71;77.01;96212.16;5056330;28;20171;-62
2021/03/19 04:54:07;;;;;;;11.33;10.23;;;;;;;4.65;76.44;96207.75;5054794;28;20637;-62
2021/03/19 04:56:33;;;;;;;10.73;9.63;;;;;;;4.03;79.76;96219.94;5056237;28;20673;-62
2021/03/19 04:58:59;;;;;;;10.87;9.50;;;;;;;4.30;78.96;96213.13;5062136;28;20455;-59
2021/03/19 05:01:25;;;;;;;9.90;8.90;;;;;;;4.25;79.22;96218.91;5076213;28;20897;-59
2021/03/19 05:03:50;;;;;;;11.17;10.10;;;;;;;4.17;79.58;96209.44;5063215;28;20423;-62
2021/03/19 05:06:17;;;;;;;11.53;10.50;;;;;;;3.60;82.03;96210.56;5075817;28;20170;-59
2021/03/19 05:08:43;;;;;;;10.40;9.40;;;;;;;3.88;81.83;96219.19;5075909;28;20190;-62
2021/03/19 05:11:10;;;;;;;10.70;9.70;;;;;;;4.26;80.58;96215.28;5075942;28;20407;-59
2021/03/19 05:13:36;;;;;;;11.00;9.13;;;;;;;4.59;79.17;96210.28;5073890;28;20468;-59
2021/03/19 05:16:02;;;;;;;13.20;10.27;;;;;;;4.85;77.39;96216.44;5075535;28;20837;-64
2021/03/19 05:18:27;;;;;;;11.30;10.20;;;;;;;4.94;77.01;96219.69;5074071;28;20193;-63
2021/03/19 05:20:53;;;;;;;11.30;10.10;;;;;;;4.99;76.28;96217.28;5076082;28;20589;-61
2021/03/19 05:23:29;;;;;;;11.93;10.73;;;;;;;5.02;75.62;96219.50;5061183;28;20176;-62
2021/03/19 05:25:55;;;;;;;11.77;10.57;;;;;;;4.89;77.04;96216.88;5054318;28;20176;-63
2021/03/19 05:28:21;;;;;;;10.30;9.30;;;;;;;4.62;76.53;96221.13;5055397;28;20443;-60
2021/03/19 05:30:52;;;;;;;11.17;9.60;;;;;;;4.64;76.25;96221.72;5055723;28;20763;-60
2021/03/19 05:33:18;;;;;;;10.27;9.27;;;;;;;4.44;78.14;96220.81;5055675;28;20807;-63
2021/03/19 05:35:43;;;;;;;11.07;9.90;;;;;;;4.65;77.59;96218.16;5055187;28;20468;-62
2021/03/19 05:38:09;;;;;;;10.37;9.47;;;;;;;4.73;77.07;96222.41;5056119;28;20196;-60
2021/03/19 05:40:42;;;;;;;10.00;9.00;;;;;;;4.84;77.06;96216.63;5063111;28;20256;-62
2021/03/19 05:43:20;;;;;;;11.43;10.10;;;;;;;4.87;76.80;96217.03;5074155;28;20175;-64
2021/03/19 05:46:00;;;;;;;10.80;9.70;;;;;;;4.93;76.27;96218.88;5059944;28;20472;-60
2021/03/19 05:48:46;;;;;;;11.33;9.43;;;;;;;5.01;76.44;96217.91;5067643;28;20525;-62
2021/03/19 05:51:31;;;;;;;10.13;9.03;;;;;;;4.70;77.51;96218.38;5074758;28;20425;-60
2021/03/19 05:54:41;;;;;;;11.87;10.53;;;;;;;4.91;76.88;96223.47;5074586;28;20467;-62
2021/03/19 05:57:07;;;;;;;11.40;10.23;;;;;;;4.82;75.84;96232.44;5054572;28;20459;-60
2021/03/19 05:59:43;;;;;;;14.60;10.83;;;;;;;4.90;77.35;96231.47;5061488;28;20433;-60
2021/03/19 06:02:25;;;;;;;14.93;11.97;;;;;;;4.97;76.97;96233.09;5074724;28;20899;-63
2021/03/19 06:05:05;;;;;;;11.27;10.17;;;;;;;4.99;76.49;96246.75;5055095;28;20453;-60
2021/03/19 06:08:01;;;;;;;12.30;11.10;;;;;;;5.03;77.18;96239.34;5054534;28;20475;-64
2021/03/19 06:10:34;;;;;;;11.70;10.50;;;;;;;5.20;76.49;96243.19;5054221;28;20791;-63
2021/03/19 06:13:05;;;;;;;12.43;10.10;;;;;;;5.26;76.81;96252.84;5054738;28;20403;-63
2021/03/19 06:15:34;;;;;;;12.40;10.73;;;;;;;5.26;76.88;96252.84;5066112;28;20421;-61
2021/03/19 06:18:01;;;;;;;12.07;10.13;;;;;;;5.23;77.35;96255.84;5074243;28;20463;-60
2021/03/19 06:20:28;;;;;;;10.60;9.30;;;;;;;4.98;77.64;96260.72;5063185;28;20457;-60
2021/03/19 06:23:02;;;;;;;10.93;9.83;;;;;;;4.90;78.83;96263.50;5054688;28;20938;-63
2021/03/19 06:25:36;;;;;;;11.03;9.97;;;;;;;4.98;78.64;96267.75;5054690;28;20920;-62
2021/03/19 06:28:10;;;;;;;12.67;10.50;;;;;;;5.28;77.93;96271.69;5054115;28;20428;-60
2021/03/19 06:30:43;;;;;;;14.10;11.63;;;;;;;5.48;76.42;96266.53;5069715;28;20932;-64
2021/03/19 06:33:11;;;;;;;11.63;10.53;;;;;;;5.24;77.94;96267.84;5074542;28;20425;-60
2021/03/19 06:35:44;;;;;;;13.53;11.07;;;;;;;5.29;77.59;96275.88;5055233;28;20488;-62
2021/03/19 06:38:31;;;;;;;12.20;10.40;;;;;;;5.38;76.75;96274.72;5061502;28;20494;-61
2021/03/19 06:41:15;;;;;;;14.80;11.10;;;;;;;5.44;77.23;96278.34;5056031;28;20445;-60
2021/03/19 06:43:40;;;;;;;13.23;11.83;;;;;;;5.44;77.11;96273.94;5054376;28;20464;-63
2021/03/19 06:46:11;;;;;;;13.00;11.63;;;;;;;5.44;76.87;96273.13;5053691;28;20398;-61
2021/03/19 06:48:43;;;;;;;14.73;12.70;;;;;;;5.47;77.54;96275.38;5054057;28;20277;-61
2021/03/19 06:51:33;;;;;;;15.27;13.73;;;;;;;5.48;77.27;96267.34;5073182;28;20431;-63
2021/03/19 06:53:58;;;;;;;13.63;12.17;;;;;;;5.46;77.33;96268.53;5073978;28;20440;-63
2021/03/19 06:56:24;;;;;;;14.63;12.17;;;;;;;5.63;77.10;96270.59;5073498;28;20875;-63
2021/03/19 06:58:50;;;;;;;16.73;12.60;;;;;;;5.67;76.45;96273.63;5070889;28;20210;-63
2021/03/19 07:01:31;;;;;;;13.60;12.30;;;;;;;5.70;76.99;96270.59;5053774;28;20197;-60
2021/03/19 07:04:34;;;;;;;14.70;13.13;;;;;;;5.73;77.04;96270.22;5056028;28;20421;-63
2021/03/19 07:07:07;;;;;;;14.23;12.50;;;;;;;5.78;76.52;96273.81;5073459;28;20404;-63
2021/03/19 07:09:40;;;;;;;13.40;12.00;;;;;;;5.72;76.73;96277.25;5073543;28;20522;-63
2021/03/19 07:12:43;;;;;;;13.37;12.07;;;;;;;5.61;77.45;96279.59;5073673;28;20402;-61
2021/03/19 07:15:46;;;;;;;13.83;12.47;;;;;;;5.70;77.20;96278.44;5071632;28;20416;-61
2021/03/19 07:18:26;;;;;;;12.90;11.70;;;;;;;5.62;77.72;96276.00;5071997;28;20506;-65
2021/03/19 07:21:20;;;;;;;14.30;11.53;;;;;;;5.76;77.39;96268.00;5060097;28;20420;-61
2021/03/19 07:24:08;;;;;;;13.43;12.07;;;;;;;5.77;76.60;96274.03;5073703;28;20436;-60
2021/03/19 07:26:36;;;;;;;16.60;13.70;;;;;;;5.91;76.83;96281.72;5073346;28;20533;-63
2021/03/19 07:29:32;;;;;;;15.07;13.23;;;;;;;5.84;76.99;96291.31;5073505;28;20428;-61
2021/03/19 07:32:19;;;;;;;15.57;13.80;;;;;;;5.82;76.53;96289.88;5070082;28;20423;-63
2021/03/19 07:35:09;;;;;;;14.80;13.37;;;;;;;5.99;76.36;96291.97;5063545;28;20901;-63
2021/03/19 07:38:04;;;;;;;17.90;15.17;;;;;;;6.09;76.41;96291.53;5073047;28;20453;-60
2021/03/19 07:41:05;;;;;;;14.70;13.00;;;;;;;5.99;76.45;96291.97;5073547;28;20397;-61
2021/03/19 07:44:08;;;;;;;15.70;12.97;;;;;;;5.97;76.81;96295.75;5071481;28;20475;-61
2021/03/19 07:46:42;;;;;;;14.67;13.10;;;;;;;6.14;76.78;96299.59;5072124;28;20407;-64
2021/03/19 07:49:26;;;;;;;16.37;13.97;;;;;;;6.10;77.21;96303.59;5071583;28;20448;-60
2021/03/19 07:52:09;;;;;;;15.03;13.30;;;;;;;6.07;76.14;96304.78;5073255;28;20400;-61
2021/03/19 07:54:43;;;;;;;16.10;14.10;;;;;;;6.02;77.48;96301.16;5060477;28;20439;-63
2021/03/19 07:57:30;;;;;;;15.60;13.43;;;;;;;6.14;77.33;96300.38;5052654;28;20553;-61
2021/03/19 08:00:08;;;;;;;13.73;12.17;;;;;;;6.20;75.70;96301.38;5054136;28;20432;-60
2021/03/19 08:02:58;;;;;;;10.80;9.80;;;;;;;6.02;77.63;96301.16;5053282;28;20435;-61
2021/03/19 08:05:35;;;;;;;12.00;10.70;;;;;;;5.93;77.56;96310.19;5053186;28;20415;-60
2021/03/19 08:08:17;;;;;;;10.93;9.83;;;;;;;5.87;77.04;96314.38;5064631;28;20958;-64
2021/03/19 08:10:53;;;;;;;11.30;10.10;;;;;;;5.83;78.21;96315.81;5052861;28;20405;-63
2021/03/19 08:13:41;;;;;;;11.33;10.23;;;;;;;5.98;77.70;96313.81;5057462;28;20520;-61
2021/03/19 08:16:25;;;;;;;12.60;9.80;;;;;;;6.01;77.29;96315.22;5074250;28;20479;-60
2021/03/19 08:19:13;;;;;;;9.70;8.70;;;;;;;5.59;79.23;96313.69;5075660;28;20436;-62
2021/03/19 08:21:53;;;;;;;10.00;8.33;;;;;;;5.50;80.85;96319.25;5076870;28;20407;-58
2021/03/19 08:24:42;;;;;;;9.43;8.43;;;;;;;5.50;81.63;96312.25;5076032;28;20393;-61
2021/03/19 08:27:26;;;;;;;10.47;8.87;;;;;;;5.54;81.41;96318.69;5066889;28;20175;-58
2021/03/19 08:30:15;;;;;;;10.47;8.90;;;;;;;5.62;81.56;96315.88;5055179;28;21043;-62
2021/03/19 08:32:43;;;;;;;10.93;9.00;;;;;;;5.69;80.91;96315.94;5053188;28;20393;-59
2021/03/19 08:35:24;;;;;;;10.63;9.53;;;;;;;5.92;79.86;96319.00;5053017;28;20444;-61
2021/03/19 08:38:17;;;;;;;11.30;10.10;;;;;;;5.98;79.00;96326.84;5065433;28;20461;-60
2021/03/19 08:41:00;;;;;;;15.50;11.10;;;;;;;6.08;78.91;96324.66;5073026;28;20409;-61
2021/03/19 08:43:33;;;;;;;12.70;10.77;;;;;;;6.02;78.64;96322.84;5059184;28;20424;-60
2021/03/19 08:46:22;;;;;;;12.90;11.03;;;;;;;6.02;78.64;96327.25;5070411;28;20405;-58
2021/03/19 08:48:57;;;;;;;14.37;11.87;;;;;;;5.93;79.30;96328.44;5069527;28;20539;-62
2021/03/19 08:51:29;;;;;;;14.30;11.20;;;;;;;5.90;80.23;96331.44;5055577;28;20426;-62
2021/03/19 08:54:15;;;;;;;13.50;10.97;;;;;;;5.89;79.76;96335.03;5058148;28;20464;-59
2021/03/19 08:57:02;;;;;;;13.47;11.30;;;;;;;6.03;78.90;96339.31;5063416;28;20951;-63
2021/03/19 08:59:30;;;;;;;11.20;9.77;;;;;;;6.11;78.57;96350.34;5054564;28;20437;-63
2021/03/19 09:02:01;;;;;;;13.20;10.80;;;;;;;5.96;78.64;96341.09;5052610;28;20417;-61
2021/03/19 09:05:00;;;;;;;12.73;9.70;;;;;;;6.08;77.43;96345.53;5052576;28;20416;-58
2021/03/19 09:07:28;;;;;;;9.87;8.57;;;;;;;5.52;78.92;96348.53;5065836;28;20416;-63
2021/03/19 09:09:57;;;;;;;10.70;8.97;;;;;;;5.47;80.47;96351.69;5071986;28;20461;-62
2021/03/19 09:12:30;;;;;;;11.27;9.77;;;;;;;5.64;80.79;96352.97;5053965;28;21020;-63
2021/03/19 09:15:18;;;;;;;9.90;8.60;;;;;;;6.03;78.81;96353.13;5071313;28;20432;-61
2021/03/19 09:17:44;;;;;;;10.80;9.13;;;;;;;6.12;78.90;96357.16;5070735;28;20512;-65
2021/03/19 09:20:09;;;;;;;11.30;9.70;;;;;;;6.19;78.14;96352.78;5054639;28;20452;-68
2021/03/19 09:22:38;;;;;;;13.23;10.83;;;;;;;6.11;79.09;96357.34;5069437;28;20182;-61
2021/03/19 09:25:10;;;;;;;14.23;11.40;;;;;;;6.16;79.58;96362.78;5059434;28;20660;-64
2021/03/19 09:27:40;;;;;;;15.50;11.93;;;;;;;6.01;80.27;96364.75;5056001;28;20503;-60
2021/03/19 09:30:33;;;;;;;15.57;12.83;;;;;;;6.08;80.67;96365.59;5070743;28;20444;-60
2021/03/19 09:33:01;;;;;;;14.47;10.90;;;;;;;5.89;80.73;96366.31;5071726;28;20434;-63
2021/03/19 09:35:46;;;;;;;14.90;12.23;;;;;;;5.96;81.63;96367.16;5069766;28;20424;-60
2021/03/19 09:38:24;;;;;;;17.13;12.10;;;;;;;6.29;80.04;96367.25;5056942;28;20448;-61
2021/03/19 09:41:01;;;;;;;13.60;11.77;;;;;;;6.36;79.13;96365.44;5056239;28;20412;-62
2021/03/19 09:43:32;;;;;;;15.13;12.17;;;;;;;6.24;78.91;96360.81;5051900;28;20410;-62
2021/03/19 09:46:23;;;;;;;14.37;12.90;;;;;;;6.37;78.73;96367.84;5051417;28;20417;-61
2021/03/19 09:48:59;;;;;;;15.70;13.10;;;;;;;6.39;78.23;96376.28;5051898;28;21139;-62
2021/03/19 09:51:45;;;;;;;11.90;10.70;;;;;;;6.30;76.64;96377.47;5055389;28;20922;-62
2021/03/19 09:54:18;;;;;;;14.57;12.00;;;;;;;6.37;76.30;96383.50;5051233;28;20421;-64
2021/03/19 09:56:43;;;;;;;15.20;11.50;;;;;;;6.50;76.42;96380.91;5054668;28;20500;-60
2021/03/19 09:59:19;;;;;;;15.00;12.10;;;;;;;6.48;76.88;96387.31;5063937;28;20472;-61
2021/03/19 10:01:45;;;;;;;17.23;13.20;;;;;;;6.31;76.74;96386.88;5058537;28;20182;-61
2021/03/19 10:04:27;;;;;;;15.00;12.17;;;;;;;6.12;77.95;96382.44;5071380;28;20446;-64
2021/03/19 10:06:53;;;;;;;13.73;12.30;;;;;;;6.10;77.06;96394.88;5070692;28;20166;-61
2021/03/19 10:09:24;;;;;;;14.70;11.23;;;;;;;5.95;79.04;96392.44;5064733;28;20443;-67
2021/03/19 10:11:53;;;;;;;14.90;12.60;;;;;;;5.94;78.88;96390.81;5060560;28;20190;-58
2021/03/19 10:14:23;;;;;;;13.80;11.80;;;;;;;5.89;79.33;96397.59;5060458;28;20428;-59
2021/03/19 10:16:48;;;;;;;17.43;12.20;;;;;;;5.95;79.66;96400.25;5070726;28;20992;-58
2021/03/19 10:19:16;;;;;;;14.87;11.70;;;;;;;6.07;81.51;96396.06;5063616;28;20440;-64
2021/03/19 10:21:45;;;;;;;14.13;11.77;;;;;;;6.39;79.50;96393.72;5052185;28;20232;-57
2021/03/19 10:24:12;;;;;;;15.40;12.53;;;;;;;6.39;79.97;96402.38;5066795;28;20437;-64
2021/03/19 10:26:51;;;;;;;12.07;10.50;;;;;;;6.53;79.21;96396.16;5051009;28;20413;-63
2021/03/19 10:29:25;;;;;;;12.30;10.43;;;;;;;6.77;77.86;96402.59;5054328;28;20436;-60
2021/03/19 10:31:54;;;;;;;10.23;9.23;;;;;;;6.85;78.07;96400.59;5066336;28;20515;-62
2021/03/19 10:34:50;;;;;;;11.67;9.97;;;;;;;6.97;76.73;96396.38;5071004;28;20497;-62
2021/03/19 10:37:33;;;;;;;12.53;10.57;;;;;;;7.03;76.24;96394.75;5060200;28;20464;-60
2021/03/19 10:40:06;;;;;;;9.37;8.47;;;;;;;6.88;75.55;96396.78;5052663;28;20417;-59
2021/03/19 10:42:48;;;;;;;10.43;9.40;;;;;;;6.87;75.41;96403.81;5049201;28;20942;-61
2021/03/19 10:45:29;;;;;;;10.90;9.53;;;;;;;6.85;75.29;96407.59;5051009;28;20479;-61
2021/03/19 10:48:33;;;;;;;10.83;9.37;;;;;;;6.89;74.34;96401.78;5056956;28;20879;-64
2021/03/19 10:51:03;;;;;;;10.73;9.67;;;;;;;6.88;75.59;96407.22;5073109;28;20923;-61
2021/03/19 10:53:55;;;;;;;9.20;8.30;;;;;;;6.91;76.98;96406.81;5074106;28;20405;-64
2021/03/19 10:56:21;;;;;;;9.60;8.60;;;;;;;7.09;76.31;96404.38;5052145;28;20800;-61
2021/03/19 10:58:54;;;;;;;12.07;9.53;;;;;;;7.12;77.41;96401.38;5053805;28;20492;-64
2021/03/19 11:01:38;;;;;;;10.00;9.00;;;;;;;7.23;79.24;96404.16;5052617;28;20588;-58
2021/03/19 11:04:24;;;;;;;10.90;8.80;;;;;;;7.50;76.68;96397.06;5070652;28;20515;-59
2021/03/19 11:06:50;;;;;;;8.23;7.27;;;;;;;7.67;74.96;96394.81;5066218;28;20425;-61
2021/03/19 11:09:23;;;;;;;8.50;7.60;;;;;;;7.49;72.61;96411.16;5053679;28;20431;-60
2021/03/19 11:11:59;;;;;;;8.17;7.03;;;;;;;7.54;73.96;96410.53;5054204;28;20494;-60
2021/03/19 11:14:29;;;;;;;7.53;6.70;;;;;;;7.47;73.76;96414.97;5053878;28;20485;-58
2021/03/19 11:17:14;;;;;;;7.50;6.77;;;;;;;7.38;73.58;96411.78;5054242;28;20944;-61
2021/03/19 11:20:11;;;;;;;8.00;7.20;;;;;;;7.41;74.32;96419.19;5052363;28;20407;-58
2021/03/19 11:22:40;;;;;;;8.17;6.73;;;;;;;7.20;73.30;96419.44;5059702;28;20414;-58
2021/03/19 11:25:44;;;;;;;6.63;6.00;;;;;;;6.92;74.59;96416.28;5073613;28;20496;-58
2021/03/19 11:28:31;;;;;;;7.73;6.93;;;;;;;7.01;75.79;96409.84;5057037;28;20509;-58
2021/03/19 11:31:18;;;;;;;7.50;6.80;;;;;;;7.06;76.68;96412.63;5069424;28;20475;-59
2021/03/19 11:33:55;;;;;;;7.00;6.30;;;;;;;7.14;75.61;96410.63;5068072;28;20408;-59
2021/03/19 11:36:22;;;;;;;5.93;5.17;;;;;;;7.04;73.88;96418.06;5052668;28;20458;-59
2021/03/19 11:38:48;;;;;;;6.10;5.43;;;;;;;6.93;74.90;96426.50;5055719;28;20439;-61
2021/03/19 11:41:36;;;;;;;5.70;5.20;;;;;;;6.86;73.73;96428.31;5059205;28;20422;-59
2021/03/19 11:44:02;;;;;;;5.80;5.30;;;;;;;6.91;74.08;96430.31;5061842;28;20170;-56
2021/03/19 11:46:29;;;;;;;5.30;4.80;;;;;;;6.49;75.26;96431.47;5072580;28;20411;-61
2021/03/19 11:48:55;;;;;;;5.20;4.70;;;;;;;6.45;76.45;96443.31;5072477;28;20791;-60
2021/03/19 11:51:30;;;;;;;5.23;4.37;;;;;;;6.31;76.44;96441.69;5068543;28;20421;-59
2021/03/19 11:53:58;;;;;;;5.80;4.90;;;;;;;6.44;76.06;96446.13;5054135;28;20418;-58
2021/03/19 11:56:24;;;;;;;5.20;4.73;;;;;;;6.64;74.46;96445.16;5068911;28;20517;-59
2021/03/19 11:58:50;;;;;;;5.20;4.80;;;;;;;6.63;75.13;96442.75;5069558;28;20437;-60
2021/03/19 12:01:16;;;;;;;5.63;5.07;;;;;;;6.60;75.18;96450.97;5066998;28;20417;-59
2021/03/19 12:03:47;;;;;;;5.80;5.23;;;;;;;6.80;74.47;96452.59;5067346;28;20171;-59
2021/03/19 12:06:14;;;;;;;5.90;5.40;;;;;;;6.85;72.70;96452.81;5058578;28;20416;-58
2021/03/19 12:08:40;;;;;;;5.70;5.20;;;;;;;6.52;74.63;96456.38;5065670;28;20437;-59